sensor_id;sensor_type;location;lat;lon;timestamp;temperature;humidity
9984;DHT22;16737;50.932;6.780;2022-12-07T00:01:38;8.00;99.90
9984;DHT22;16737;50.932;6.780;2022-12-07T00:04:08;8.00;99.90
9984;DHT22;16737;50.932;6.780;2022-12-07T00:06:39;8.00;99.90
9984;DHT22;16737;50.932;6.780;2022-12-07T00:09:10;8.00;99.90
9984;DHT22;16737;50.932;6.780;2022-12-07T00:11:38;8.00;99.90
9984;DHT22;16737;50.932;6.780;2022-12-07T00:14:14;8.00;99.90
9984;DHT22;16737;50.932;6.780;2022-12-07T00:16:44;8.00;99.90
9984;DHT22;16737;50.932;6.780;2022-12-07T00:19:12;8.00;99.90
9984;DHT22;16737;50.932;6.780;2022-12-07T00:21:40;8.00;99.90
9984;DHT22;16737;50.932;6.780;2022-12-07T00:24:07;8.00;99.90
9984;DHT22;16737;50.932;6.780;2022-12-07T00:26:37;8.00;99.90
9984;DHT22;16737;50.932;6.780;2022-12-07T00:29:06;8.00;99.90
9984;DHT22;16737;50.932;6.780;2022-12-07T00:31:36;8.00;99.90
9984;DHT22;16737;50.932;6.780;2022-12-07T00:34:06;8.00;99.90
9984;DHT22;16737;50.932;6.780;2022-12-07T00:36:33;8.00;99.90
9984;DHT22;16737;50.932;6.780;2022-12-07T00:39:01;8.00;99.90
9984;DHT22;16737;50.932;6.780;2022-12-07T00:41:29;8.00;99.90
9984;DHT22;16737;50.932;6.780;2022-12-07T00:43:57;8.00;99.90
9984;DHT22;16737;50.932;6.780;2022-12-07T00:46:24;8.00;99.90
9984;DHT22;16737;50.932;6.780;2022-12-07T00:48:52;8.00;99.90
9984;DHT22;16737;50.932;6.780;2022-12-07T00:51:23;8.00;99.90
9984;DHT22;16737;50.932;6.780;2022-12-07T00:53:52;8.00;99.90
9984;DHT22;16737;50.932;6.780;2022-12-07T00:56:22;8.00;99.90
9984;DHT22;16737;50.932;6.780;2022-12-07T00:58:52;8.00;99.90
9984;DHT22;16737;50.932;6.780;2022-12-07T01:01:21;8.00;99.90
9984;DHT22;16737;50.932;6.780;2022-12-07T01:03:48;8.00;99.90
9984;DHT22;16737;50.932;6.780;2022-12-07T01:06:16;8.00;99.90
9984;DHT22;16737;50.932;6.780;2022-12-07T01:08:45;8.00;99.90
9984;DHT22;16737;50.932;6.780;2022-12-07T01:11:14;8.00;99.90
9984;DHT22;16737;50.932;6.780;2022-12-07T01:13:44;8.00;99.90
9984;DHT22;16737;50.932;6.780;2022-12-07T01:16:13;8.00;99.90
9984;DHT22;16737;50.932;6.780;2022-12-07T01:18:42;8.00;99.90
9984;DHT22;16737;50.932;6.780;2022-12-07T01:21:14;8.10;99.90
9984;DHT22;16737;50.932;6.780;2022-12-07T01:23:43;8.10;99.90
9984;DHT22;16737;50.932;6.780;2022-12-07T01:26:14;8.10;99.90
9984;DHT22;16737;50.932;6.780;2022-12-07T01:28:43;8.00;99.90
9984;DHT22;16737;50.932;6.780;2022-12-07T01:31:12;8.10;99.90
9984;DHT22;16737;50.932;6.780;2022-12-07T01:33:42;8.10;99.90
9984;DHT22;16737;50.932;6.780;2022-12-07T01:36:14;8.10;99.90
9984;DHT22;16737;50.932;6.780;2022-12-07T01:38:45;8.10;99.90
9984;DHT22;16737;50.932;6.780;2022-12-07T01:41:15;8.10;99.90
9984;DHT22;16737;50.932;6.780;2022-12-07T01:44:08;8.10;99.90
9984;DHT22;16737;50.932;6.780;2022-12-07T01:46:38;8.10;99.90
9984;DHT22;16737;50.932;6.780;2022-12-07T01:49:07;8.10;99.90
9984;DHT22;16737;50.932;6.780;2022-12-07T01:51:39;8.10;99.90
9984;DHT22;16737;50.932;6.780;2022-12-07T01:54:09;8.10;99.90
9984;DHT22;16737;50.932;6.780;2022-12-07T01:56:42;8.20;99.90
9984;DHT22;16737;50.932;6.780;2022-12-07T01:59:16;8.20;99.90
9984;DHT22;16737;50.932;6.780;2022-12-07T02:01:46;8.20;99.90
9984;DHT22;16737;50.932;6.780;2022-12-07T02:04:13;8.20;99.90
9984;DHT22;16737;50.932;6.780;2022-12-07T02:06:42;8.20;99.90
9984;DHT22;16737;50.932;6.780;2022-12-07T02:09:11;8.20;99.90
9984;DHT22;16737;50.932;6.780;2022-12-07T02:11:40;8.20;99.90
9984;DHT22;16737;50.932;6.780;2022-12-07T02:14:07;8.20;99.90
9984;DHT22;16737;50.932;6.780;2022-12-07T02:16:41;8.20;99.90
9984;DHT22;16737;50.932;6.780;2022-12-07T02:19:39;8.20;99.90
9984;DHT22;16737;50.932;6.780;2022-12-07T02:25:58;8.20;99.90
9984;DHT22;16737;50.932;6.780;2022-12-07T02:28:56;8.20;99.90
9984;DHT22;16737;50.932;6.780;2022-12-07T02:31:37;8.10;99.90
9984;DHT22;16737;50.932;6.780;2022-12-07T02:34:17;8.10;99.90
9984;DHT22;16737;50.932;6.780;2022-12-07T02:36:52;8.10;99.90
9984;DHT22;16737;50.932;6.780;2022-12-07T02:39:29;8.10;99.90
9984;DHT22;16737;50.932;6.780;2022-12-07T02:42:07;8.10;99.90
9984;DHT22;16737;50.932;6.780;2022-12-07T02:44:40;8.10;99.90
9984;DHT22;16737;50.932;6.780;2022-12-07T02:47:11;8.10;99.90
9984;DHT22;16737;50.932;6.780;2022-12-07T02:49:40;8.10;99.90
9984;DHT22;16737;50.932;6.780;2022-12-07T02:52:07;8.10;99.90
9984;DHT22;16737;50.932;6.780;2022-12-07T02:54:34;8.10;99.90
9984;DHT22;16737;50.932;6.780;2022-12-07T02:57:12;8.10;99.90
9984;DHT22;16737;50.932;6.780;2022-12-07T03:00:00;8.10;99.90
9984;DHT22;16737;50.932;6.780;2022-12-07T03:02:35;8.10;99.90
9984;DHT22;16737;50.932;6.780;2022-12-07T03:05:23;8.10;99.90
9984;DHT22;16737;50.932;6.780;2022-12-07T03:08:02;8.10;99.90
9984;DHT22;16737;50.932;6.780;2022-12-07T03:10:39;8.10;99.90
9984;DHT22;16737;50.932;6.780;2022-12-07T03:13:19;8.10;99.90
9984;DHT22;16737;50.932;6.780;2022-12-07T03:15:55;8.00;99.90
9984;DHT22;16737;50.932;6.780;2022-12-07T03:18:30;8.00;99.90
9984;DHT22;16737;50.932;6.780;2022-12-07T03:21:04;8.00;99.90
9984;DHT22;16737;50.932;6.780;2022-12-07T03:23:35;8.00;99.90
9984;DHT22;16737;50.932;6.780;2022-12-07T03:26:05;8.00;99.90
9984;DHT22;16737;50.932;6.780;2022-12-07T03:28:40;8.00;99.90
9984;DHT22;16737;50.932;6.780;2022-12-07T03:31:14;8.00;99.90
9984;DHT22;16737;50.932;6.780;2022-12-07T03:33:49;8.00;99.90
9984;DHT22;16737;50.932;6.780;2022-12-07T03:36:28;8.00;99.90
9984;DHT22;16737;50.932;6.780;2022-12-07T03:39:02;8.00;99.90
9984;DHT22;16737;50.932;6.780;2022-12-07T03:41:35;8.00;99.90
9984;DHT22;16737;50.932;6.780;2022-12-07T03:44:04;8.00;99.90
9984;DHT22;16737;50.932;6.780;2022-12-07T03:46:37;8.00;99.90
9984;DHT22;16737;50.932;6.780;2022-12-07T03:49:16;8.00;99.90
9984;DHT22;16737;50.932;6.780;2022-12-07T03:51:53;8.00;99.90
9984;DHT22;16737;50.932;6.780;2022-12-07T03:54:29;8.00;99.90
9984;DHT22;16737;50.932;6.780;2022-12-07T03:57:01;8.00;99.90
9984;DHT22;16737;50.932;6.780;2022-12-07T03:59:30;8.00;99.90
9984;DHT22;16737;50.932;6.780;2022-12-07T04:02:02;8.00;99.90
9984;DHT22;16737;50.932;6.780;2022-12-07T04:04:31;8.00;99.90
9984;DHT22;16737;50.932;6.780;2022-12-07T04:06:58;8.00;99.90
9984;DHT22;16737;50.932;6.780;2022-12-07T04:09:25;8.00;99.90
9984;DHT22;16737;50.932;6.780;2022-12-07T04:11:52;7.90;99.90
9984;DHT22;16737;50.932;6.780;2022-12-07T04:14:19;7.90;99.90
9984;DHT22;16737;50.932;6.780;2022-12-07T04:16:47;7.90;99.90
9984;DHT22;16737;50.932;6.780;2022-12-07T04:19:17;7.90;99.90
9984;DHT22;16737;50.932;6.780;2022-12-07T04:21:46;7.90;99.90
9984;DHT22;16737;50.932;6.780;2022-12-07T04:24:15;7.90;99.90
9984;DHT22;16737;50.932;6.780;2022-12-07T04:26:43;7.90;99.90
9984;DHT22;16737;50.932;6.780;2022-12-07T04:29:11;7.90;99.90
9984;DHT22;16737;50.932;6.780;2022-12-07T04:31:39;7.90;99.90
9984;DHT22;16737;50.932;6.780;2022-12-07T04:34:06;7.90;99.90
9984;DHT22;16737;50.932;6.780;2022-12-07T04:36:36;7.90;99.90
9984;DHT22;16737;50.932;6.780;2022-12-07T04:39:03;7.90;99.90
9984;DHT22;16737;50.932;6.780;2022-12-07T04:41:31;7.90;99.90
9984;DHT22;16737;50.932;6.780;2022-12-07T04:43:59;7.90;99.90
9984;DHT22;16737;50.932;6.780;2022-12-07T04:46:29;7.90;99.90
9984;DHT22;16737;50.932;6.780;2022-12-07T04:48:58;7.90;99.90
9984;DHT22;16737;50.932;6.780;2022-12-07T04:51:26;7.90;99.90
9984;DHT22;16737;50.932;6.780;2022-12-07T04:53:57;7.90;99.90
9984;DHT22;16737;50.932;6.780;2022-12-07T04:56:24;7.90;99.90
9984;DHT22;16737;50.932;6.780;2022-12-07T04:58:52;7.90;99.90
9984;DHT22;16737;50.932;6.780;2022-12-07T05:01:21;7.80;99.90
9984;DHT22;16737;50.932;6.780;2022-12-07T05:03:49;7.80;99.90
9984;DHT22;16737;50.932;6.780;2022-12-07T05:06:16;7.80;99.90
9984;DHT22;16737;50.932;6.780;2022-12-07T05:08:43;7.80;99.90
9984;DHT22;16737;50.932;6.780;2022-12-07T05:11:12;7.80;99.90
9984;DHT22;16737;50.932;6.780;2022-12-07T05:14:00;7.80;99.90
9984;DHT22;16737;50.932;6.780;2022-12-07T05:16:28;7.80;99.90
9984;DHT22;16737;50.932;6.780;2022-12-07T05:18:56;7.80;99.90
9984;DHT22;16737;50.932;6.780;2022-12-07T05:21:23;7.80;99.90
9984;DHT22;16737;50.932;6.780;2022-12-07T05:23:50;7.80;99.90
9984;DHT22;16737;50.932;6.780;2022-12-07T05:26:19;7.80;99.90
9984;DHT22;16737;50.932;6.780;2022-12-07T05:28:50;7.80;99.90
9984;DHT22;16737;50.932;6.780;2022-12-07T05:31:18;7.80;99.90
9984;DHT22;16737;50.932;6.780;2022-12-07T05:33:45;7.80;99.90
9984;DHT22;16737;50.932;6.780;2022-12-07T05:36:12;7.80;99.90
9984;DHT22;16737;50.932;6.780;2022-12-07T05:38:40;7.80;99.90
9984;DHT22;16737;50.932;6.780;2022-12-07T05:41:08;7.80;99.90
9984;DHT22;16737;50.932;6.780;2022-12-07T05:43:59;7.80;99.90
9984;DHT22;16737;50.932;6.780;2022-12-07T05:46:26;7.80;99.90
9984;DHT22;16737;50.932;6.780;2022-12-07T05:48:53;7.80;99.90
9984;DHT22;16737;50.932;6.780;2022-12-07T05:51:21;7.80;99.90
9984;DHT22;16737;50.932;6.780;2022-12-07T05:53:47;7.80;99.90
9984;DHT22;16737;50.932;6.780;2022-12-07T05:56:14;7.80;99.90
9984;DHT22;16737;50.932;6.780;2022-12-07T05:58:41;7.80;99.90
9984;DHT22;16737;50.932;6.780;2022-12-07T06:01:28;7.80;99.90
9984;DHT22;16737;50.932;6.780;2022-12-07T06:03:55;7.80;99.90
9984;DHT22;16737;50.932;6.780;2022-12-07T06:06:22;7.80;99.90
9984;DHT22;16737;50.932;6.780;2022-12-07T06:08:48;7.80;99.90
9984;DHT22;16737;50.932;6.780;2022-12-07T06:11:15;7.80;99.90
9984;DHT22;16737;50.932;6.780;2022-12-07T06:14:00;7.80;99.90
9984;DHT22;16737;50.932;6.780;2022-12-07T06:16:28;7.70;99.90
9984;DHT22;16737;50.932;6.780;2022-12-07T06:18:55;7.70;99.90
9984;DHT22;16737;50.932;6.780;2022-12-07T06:21:22;7.70;99.90
9984;DHT22;16737;50.932;6.780;2022-12-07T06:23:51;7.70;99.90
9984;DHT22;16737;50.932;6.780;2022-12-07T06:26:17;7.70;99.90
9984;DHT22;16737;50.932;6.780;2022-12-07T06:28:45;7.70;99.90
9984;DHT22;16737;50.932;6.780;2022-12-07T06:31:12;7.70;99.90
9984;DHT22;16737;50.932;6.780;2022-12-07T06:33:40;7.70;99.90
9984;DHT22;16737;50.932;6.780;2022-12-07T06:36:08;7.70;99.90
9984;DHT22;16737;50.932;6.780;2022-12-07T06:38:35;7.70;99.90
9984;DHT22;16737;50.932;6.780;2022-12-07T06:41:03;7.70;99.90
9984;DHT22;16737;50.932;6.780;2022-12-07T06:43:30;7.70;99.90
9984;DHT22;16737;50.932;6.780;2022-12-07T06:45:57;7.70;99.90
9984;DHT22;16737;50.932;6.780;2022-12-07T06:48:24;7.70;99.90
9984;DHT22;16737;50.932;6.780;2022-12-07T06:50:52;7.70;99.90
9984;DHT22;16737;50.932;6.780;2022-12-07T06:53:19;7.70;99.90
9984;DHT22;16737;50.932;6.780;2022-12-07T06:55:46;7.70;99.90
9984;DHT22;16737;50.932;6.780;2022-12-07T06:58:13;7.70;99.90
9984;DHT22;16737;50.932;6.780;2022-12-07T07:00:40;7.70;99.90
9984;DHT22;16737;50.932;6.780;2022-12-07T07:03:07;7.70;99.90
9984;DHT22;16737;50.932;6.780;2022-12-07T07:05:34;7.70;99.90
9984;DHT22;16737;50.932;6.780;2022-12-07T07:08:03;7.70;99.90
9984;DHT22;16737;50.932;6.780;2022-12-07T07:10:30;7.70;99.90
9984;DHT22;16737;50.932;6.780;2022-12-07T07:12:57;7.70;99.90
9984;DHT22;16737;50.932;6.780;2022-12-07T07:15:24;7.70;99.90
9984;DHT22;16737;50.932;6.780;2022-12-07T07:17:51;7.70;99.90
9984;DHT22;16737;50.932;6.780;2022-12-07T07:20:21;7.70;99.90
9984;DHT22;16737;50.932;6.780;2022-12-07T07:22:49;7.70;99.90
9984;DHT22;16737;50.932;6.780;2022-12-07T07:25:18;7.70;99.90
9984;DHT22;16737;50.932;6.780;2022-12-07T07:27:45;7.70;99.90
9984;DHT22;16737;50.932;6.780;2022-12-07T07:30:12;7.70;99.90
9984;DHT22;16737;50.932;6.780;2022-12-07T07:32:40;7.80;99.90
9984;DHT22;16737;50.932;6.780;2022-12-07T07:35:07;7.70;99.90
9984;DHT22;16737;50.932;6.780;2022-12-07T07:37:34;7.70;99.90
9984;DHT22;16737;50.932;6.780;2022-12-07T07:40:01;7.70;99.90
9984;DHT22;16737;50.932;6.780;2022-12-07T07:42:29;7.70;99.90
9984;DHT22;16737;50.932;6.780;2022-12-07T07:44:56;7.70;99.90
9984;DHT22;16737;50.932;6.780;2022-12-07T07:47:23;7.70;99.90
9984;DHT22;16737;50.932;6.780;2022-12-07T07:49:50;7.70;99.90
9984;DHT22;16737;50.932;6.780;2022-12-07T07:52:17;7.70;99.90
9984;DHT22;16737;50.932;6.780;2022-12-07T07:54:44;7.70;99.90
9984;DHT22;16737;50.932;6.780;2022-12-07T07:57:11;7.70;99.90
9984;DHT22;16737;50.932;6.780;2022-12-07T07:59:45;7.70;99.90
9984;DHT22;16737;50.932;6.780;2022-12-07T08:02:14;7.70;99.90
9984;DHT22;16737;50.932;6.780;2022-12-07T08:04:42;7.70;99.90
9984;DHT22;16737;50.932;6.780;2022-12-07T08:07:09;7.70;99.90
9984;DHT22;16737;50.932;6.780;2022-12-07T08:09:37;7.70;99.90
9984;DHT22;16737;50.932;6.780;2022-12-07T08:12:04;7.60;99.90
9984;DHT22;16737;50.932;6.780;2022-12-07T08:14:32;7.60;99.90
9984;DHT22;16737;50.932;6.780;2022-12-07T08:17:00;7.60;99.90
9984;DHT22;16737;50.932;6.780;2022-12-07T08:19:27;7.60;99.90
9984;DHT22;16737;50.932;6.780;2022-12-07T08:21:54;7.60;99.90
9984;DHT22;16737;50.932;6.780;2022-12-07T08:24:22;7.60;99.90
9984;DHT22;16737;50.932;6.780;2022-12-07T08:26:50;7.60;99.90
9984;DHT22;16737;50.932;6.780;2022-12-07T08:29:17;7.70;99.90
9984;DHT22;16737;50.932;6.780;2022-12-07T08:31:44;7.60;99.90
9984;DHT22;16737;50.932;6.780;2022-12-07T08:34:13;7.60;99.90
9984;DHT22;16737;50.932;6.780;2022-12-07T08:36:40;7.70;99.90
9984;DHT22;16737;50.932;6.780;2022-12-07T08:39:07;7.70;99.90
9984;DHT22;16737;50.932;6.780;2022-12-07T08:41:35;7.70;99.90
9984;DHT22;16737;50.932;6.780;2022-12-07T08:44:02;7.70;99.90
9984;DHT22;16737;50.932;6.780;2022-12-07T08:46:32;7.70;99.90
9984;DHT22;16737;50.932;6.780;2022-12-07T08:49:05;7.70;99.90
9984;DHT22;16737;50.932;6.780;2022-12-07T08:51:38;7.70;99.90
9984;DHT22;16737;50.932;6.780;2022-12-07T08:54:09;7.70;99.90
9984;DHT22;16737;50.932;6.780;2022-12-07T08:56:38;7.70;99.90
9984;DHT22;16737;50.932;6.780;2022-12-07T08:59:06;7.70;99.90
9984;DHT22;16737;50.932;6.780;2022-12-07T09:01:33;7.70;99.90
9984;DHT22;16737;50.932;6.780;2022-12-07T09:04:00;7.80;99.90
9984;DHT22;16737;50.932;6.780;2022-12-07T09:06:27;7.80;99.90
9984;DHT22;16737;50.932;6.780;2022-12-07T09:08:58;7.80;99.90
9984;DHT22;16737;50.932;6.780;2022-12-07T09:11:27;7.80;99.90
9984;DHT22;16737;50.932;6.780;2022-12-07T09:13:54;7.80;99.90
9984;DHT22;16737;50.932;6.780;2022-12-07T09:16:21;7.80;99.90
9984;DHT22;16737;50.932;6.780;2022-12-07T09:18:48;7.90;99.90
9984;DHT22;16737;50.932;6.780;2022-12-07T09:21:15;7.90;99.90
9984;DHT22;16737;50.932;6.780;2022-12-07T09:23:42;7.90;99.90
9984;DHT22;16737;50.932;6.780;2022-12-07T09:26:10;7.90;99.90
9984;DHT22;16737;50.932;6.780;2022-12-07T09:28:38;8.00;99.90
9984;DHT22;16737;50.932;6.780;2022-12-07T09:31:05;8.00;99.90
9984;DHT22;16737;50.932;6.780;2022-12-07T09:33:32;8.00;99.90
9984;DHT22;16737;50.932;6.780;2022-12-07T09:35:59;8.00;99.90
9984;DHT22;16737;50.932;6.780;2022-12-07T09:38:26;8.10;99.90
9984;DHT22;16737;50.932;6.780;2022-12-07T09:40:56;8.10;99.90
9984;DHT22;16737;50.932;6.780;2022-12-07T09:43:25;8.10;99.90
9984;DHT22;16737;50.932;6.780;2022-12-07T09:45:54;8.10;99.90
9984;DHT22;16737;50.932;6.780;2022-12-07T09:48:25;8.20;99.90
9984;DHT22;16737;50.932;6.780;2022-12-07T09:50:57;8.20;99.90
9984;DHT22;16737;50.932;6.780;2022-12-07T09:53:28;8.30;99.90
9984;DHT22;16737;50.932;6.780;2022-12-07T09:55:59;8.30;99.90
9984;DHT22;16737;50.932;6.780;2022-12-07T09:58:29;8.30;99.90
9984;DHT22;16737;50.932;6.780;2022-12-07T10:01:00;8.30;99.90
9984;DHT22;16737;50.932;6.780;2022-12-07T10:03:31;8.40;99.90
9984;DHT22;16737;50.932;6.780;2022-12-07T10:05:59;8.40;99.90
9984;DHT22;16737;50.932;6.780;2022-12-07T10:08:26;8.40;99.90
9984;DHT22;16737;50.932;6.780;2022-12-07T10:10:54;8.50;99.90
9984;DHT22;16737;50.932;6.780;2022-12-07T10:13:35;8.50;99.90
9984;DHT22;16737;50.932;6.780;2022-12-07T10:16:05;8.60;99.90
9984;DHT22;16737;50.932;6.780;2022-12-07T10:18:34;8.70;99.90
9984;DHT22;16737;50.932;6.780;2022-12-07T10:21:08;8.70;99.90
9984;DHT22;16737;50.932;6.780;2022-12-07T10:23:41;8.80;99.90
9984;DHT22;16737;50.932;6.780;2022-12-07T10:26:21;8.80;99.90
9984;DHT22;16737;50.932;6.780;2022-12-07T10:28:55;8.90;99.90
9984;DHT22;16737;50.932;6.780;2022-12-07T10:31:25;8.90;99.90
9984;DHT22;16737;50.932;6.780;2022-12-07T10:33:54;8.90;99.90
9984;DHT22;16737;50.932;6.780;2022-12-07T10:36:24;8.90;99.90
9984;DHT22;16737;50.932;6.780;2022-12-07T10:38:58;8.90;99.90
9984;DHT22;16737;50.932;6.780;2022-12-07T10:41:27;9.00;99.90
9984;DHT22;16737;50.932;6.780;2022-12-07T10:43:56;9.00;99.90
9984;DHT22;16737;50.932;6.780;2022-12-07T10:53:11;9.10;99.90
9984;DHT22;16737;50.932;6.780;2022-12-07T10:56:13;9.10;99.90
9984;DHT22;16737;50.932;6.780;2022-12-07T10:59:08;9.10;99.90
9984;DHT22;16737;50.932;6.780;2022-12-07T11:01:51;9.20;99.90
9984;DHT22;16737;50.932;6.780;2022-12-07T11:04:29;9.20;99.90
9984;DHT22;16737;50.932;6.780;2022-12-07T11:07:06;9.30;99.90
9984;DHT22;16737;50.932;6.780;2022-12-07T11:09:58;9.40;99.90
9984;DHT22;16737;50.932;6.780;2022-12-07T11:13:16;9.40;99.90
9984;DHT22;16737;50.932;6.780;2022-12-07T11:16:19;9.40;99.90
9984;DHT22;16737;50.932;6.780;2022-12-07T11:19:04;9.50;99.90
9984;DHT22;16737;50.932;6.780;2022-12-07T11:21:48;9.50;99.90
9984;DHT22;16737;50.932;6.780;2022-12-07T11:24:19;9.50;99.90
9984;DHT22;16737;50.932;6.780;2022-12-07T11:27:01;9.50;99.90
9984;DHT22;16737;50.932;6.780;2022-12-07T11:29:47;9.60;99.90
9984;DHT22;16737;50.932;6.780;2022-12-07T11:32:34;9.60;99.90
9984;DHT22;16737;50.932;6.780;2022-12-07T11:35:22;9.60;99.90
9984;DHT22;16737;50.932;6.780;2022-12-07T11:38:00;9.60;99.90
9984;DHT22;16737;50.932;6.780;2022-12-07T11:40:36;9.60;99.90
9984;DHT22;16737;50.932;6.780;2022-12-07T11:43:10;9.60;99.90
9984;DHT22;16737;50.932;6.780;2022-12-07T11:45:46;9.50;99.90
9984;DHT22;16737;50.932;6.780;2022-12-07T11:48:22;9.50;99.90
9984;DHT22;16737;50.932;6.780;2022-12-07T11:50:57;9.50;99.90
9984;DHT22;16737;50.932;6.780;2022-12-07T11:53:29;9.50;99.90
9984;DHT22;16737;50.932;6.780;2022-12-07T11:56:06;9.40;99.90
9984;DHT22;16737;50.932;6.780;2022-12-07T11:58:44;9.40;99.90
9984;DHT22;16737;50.932;6.780;2022-12-07T12:01:25;9.40;99.90
9984;DHT22;16737;50.932;6.780;2022-12-07T12:04:10;9.40;99.90
9984;DHT22;16737;50.932;6.780;2022-12-07T12:06:50;9.40;99.90
9984;DHT22;16737;50.932;6.780;2022-12-07T12:09:19;9.40;99.90
9984;DHT22;16737;50.932;6.780;2022-12-07T12:12:06;9.40;99.90
9984;DHT22;16737;50.932;6.780;2022-12-07T12:14:52;9.40;99.90
9984;DHT22;16737;50.932;6.780;2022-12-07T12:20:41;9.40;99.90
9984;DHT22;16737;50.932;6.780;2022-12-07T12:23:15;9.40;99.90
9984;DHT22;16737;50.932;6.780;2022-12-07T12:25:47;9.40;99.90
9984;DHT22;16737;50.932;6.780;2022-12-07T12:28:23;9.40;99.90
9984;DHT22;16737;50.932;6.780;2022-12-07T12:31:07;9.40;99.90
9984;DHT22;16737;50.932;6.780;2022-12-07T12:33:38;9.40;99.90
9984;DHT22;16737;50.932;6.780;2022-12-07T12:36:24;9.40;99.90
9984;DHT22;16737;50.932;6.780;2022-12-07T12:39:10;9.40;99.90
9984;DHT22;16737;50.932;6.780;2022-12-07T12:42:07;9.40;99.90
9984;DHT22;16737;50.932;6.780;2022-12-07T12:45:18;9.40;99.90
9984;DHT22;16737;50.932;6.780;2022-12-07T12:47:55;9.40;99.90
9984;DHT22;16737;50.932;6.780;2022-12-07T12:50:27;9.40;99.90
9984;DHT22;16737;50.932;6.780;2022-12-07T12:56:19;9.40;99.90
9984;DHT22;16737;50.932;6.780;2022-12-07T12:59:23;9.40;99.90
9984;DHT22;16737;50.932;6.780;2022-12-07T13:01:55;9.50;99.90
9984;DHT22;16737;50.932;6.780;2022-12-07T13:04:48;9.40;99.90
9984;DHT22;16737;50.932;6.780;2022-12-07T13:10:41;9.50;99.90
9984;DHT22;16737;50.932;6.780;2022-12-07T13:13:31;9.50;99.90
9984;DHT22;16737;50.932;6.780;2022-12-07T13:16:37;9.50;99.90
9984;DHT22;16737;50.932;6.780;2022-12-07T13:22:49;9.50;99.90
9984;DHT22;16737;50.932;6.780;2022-12-07T13:25:31;9.50;99.90
9984;DHT22;16737;50.932;6.780;2022-12-07T13:28:11;9.50;99.90
9984;DHT22;16737;50.932;6.780;2022-12-07T13:30:45;9.50;99.90
9984;DHT22;16737;50.932;6.780;2022-12-07T13:33:20;9.50;99.90
9984;DHT22;16737;50.932;6.780;2022-12-07T13:35:47;9.40;99.90
9984;DHT22;16737;50.932;6.780;2022-12-07T13:38:23;9.40;99.90
9984;DHT22;16737;50.932;6.780;2022-12-07T13:41:03;9.50;99.80
9984;DHT22;16737;50.932;6.780;2022-12-07T13:43:44;9.50;99.80
9984;DHT22;16737;50.932;6.780;2022-12-07T13:46:12;9.50;99.90
9984;DHT22;16737;50.932;6.780;2022-12-07T13:48:45;9.50;99.90
9984;DHT22;16737;50.932;6.780;2022-12-07T13:51:19;9.50;99.90
9984;DHT22;16737;50.932;6.780;2022-12-07T13:53:49;9.50;99.90
9984;DHT22;16737;50.932;6.780;2022-12-07T13:56:21;9.50;99.90
9984;DHT22;16737;50.932;6.780;2022-12-07T13:58:52;9.50;99.90
9984;DHT22;16737;50.932;6.780;2022-12-07T14:01:19;9.50;99.90
9984;DHT22;16737;50.932;6.780;2022-12-07T14:03:46;9.50;99.90
9984;DHT22;16737;50.932;6.780;2022-12-07T14:06:24;9.50;99.90
9984;DHT22;16737;50.932;6.780;2022-12-07T14:09:16;9.50;99.80
9984;DHT22;16737;50.932;6.780;2022-12-07T14:11:48;9.50;99.80
9984;DHT22;16737;50.932;6.780;2022-12-07T14:14:19;9.50;99.80
9984;DHT22;16737;50.932;6.780;2022-12-07T14:16:59;9.50;99.80
9984;DHT22;16737;50.932;6.780;2022-12-07T14:19:49;9.50;99.80
9984;DHT22;16737;50.932;6.780;2022-12-07T14:22:30;9.50;99.70
9984;DHT22;16737;50.932;6.780;2022-12-07T14:27:54;9.50;99.80
9984;DHT22;16737;50.932;6.780;2022-12-07T14:30:25;9.50;99.80
9984;DHT22;16737;50.932;6.780;2022-12-07T14:32:56;9.50;99.80
9984;DHT22;16737;50.932;6.780;2022-12-07T14:35:26;9.40;99.80
9984;DHT22;16737;50.932;6.780;2022-12-07T14:37:53;9.50;99.80
9984;DHT22;16737;50.932;6.780;2022-12-07T14:40:22;9.40;99.80
9984;DHT22;16737;50.932;6.780;2022-12-07T14:42:55;9.40;99.80
9984;DHT22;16737;50.932;6.780;2022-12-07T14:45:24;9.40;99.80
9984;DHT22;16737;50.932;6.780;2022-12-07T14:47:51;9.40;99.80
9984;DHT22;16737;50.932;6.780;2022-12-07T14:50:19;9.40;99.80
9984;DHT22;16737;50.932;6.780;2022-12-07T14:52:49;9.40;99.70
9984;DHT22;16737;50.932;6.780;2022-12-07T14:55:23;9.40;99.70
9984;DHT22;16737;50.932;6.780;2022-12-07T14:57:54;9.40;99.70
9984;DHT22;16737;50.932;6.780;2022-12-07T15:00:23;9.40;99.70
9984;DHT22;16737;50.932;6.780;2022-12-07T15:02:51;9.40;99.80
9984;DHT22;16737;50.932;6.780;2022-12-07T15:05:19;9.40;99.80
9984;DHT22;16737;50.932;6.780;2022-12-07T15:07:47;9.30;99.80
9984;DHT22;16737;50.932;6.780;2022-12-07T15:10:16;9.30;99.80
9984;DHT22;16737;50.932;6.780;2022-12-07T15:12:45;9.30;99.70
9984;DHT22;16737;50.932;6.780;2022-12-07T15:15:13;9.30;99.70
9984;DHT22;16737;50.932;6.780;2022-12-07T15:17:41;9.30;99.70
9984;DHT22;16737;50.932;6.780;2022-12-07T15:20:11;9.30;99.70
9984;DHT22;16737;50.932;6.780;2022-12-07T15:22:40;9.30;99.60
9984;DHT22;16737;50.932;6.780;2022-12-07T15:25:08;9.30;99.60
9984;DHT22;16737;50.932;6.780;2022-12-07T15:27:35;9.20;99.70
9984;DHT22;16737;50.932;6.780;2022-12-07T15:30:03;9.20;99.70
9984;DHT22;16737;50.932;6.780;2022-12-07T15:32:32;9.20;99.70
9984;DHT22;16737;50.932;6.780;2022-12-07T15:34:59;9.20;99.70
9984;DHT22;16737;50.932;6.780;2022-12-07T15:37:26;9.20;99.70
9984;DHT22;16737;50.932;6.780;2022-12-07T15:39:53;9.20;99.60
9984;DHT22;16737;50.932;6.780;2022-12-07T15:42:20;9.10;99.50
9984;DHT22;16737;50.932;6.780;2022-12-07T15:44:46;9.10;99.50
9984;DHT22;16737;50.932;6.780;2022-12-07T15:47:36;9.10;99.50
9984;DHT22;16737;50.932;6.780;2022-12-07T15:50:06;9.00;99.40
9984;DHT22;16737;50.932;6.780;2022-12-07T15:52:35;9.00;99.30
9984;DHT22;16737;50.932;6.780;2022-12-07T15:55:03;8.90;99.30
9984;DHT22;16737;50.932;6.780;2022-12-07T15:57:31;8.90;99.20
9984;DHT22;16737;50.932;6.780;2022-12-07T15:59:58;8.80;99.50
9984;DHT22;16737;50.932;6.780;2022-12-07T16:02:25;8.80;99.20
9984;DHT22;16737;50.932;6.780;2022-12-07T16:04:54;8.70;99.10
9984;DHT22;16737;50.932;6.780;2022-12-07T16:07:21;8.60;99.10
9984;DHT22;16737;50.932;6.780;2022-12-07T16:09:48;8.60;99.10
9984;DHT22;16737;50.932;6.780;2022-12-07T16:12:16;8.50;99.10
9984;DHT22;16737;50.932;6.780;2022-12-07T16:14:43;8.50;99.10
9984;DHT22;16737;50.932;6.780;2022-12-07T16:17:10;8.40;99.00
9984;DHT22;16737;50.932;6.780;2022-12-07T16:19:38;8.40;99.10
9984;DHT22;16737;50.932;6.780;2022-12-07T16:22:06;8.40;99.10
9984;DHT22;16737;50.932;6.780;2022-12-07T16:24:33;8.40;99.10
9984;DHT22;16737;50.932;6.780;2022-12-07T16:27:00;8.30;99.00
9984;DHT22;16737;50.932;6.780;2022-12-07T16:29:27;8.30;99.10
9984;DHT22;16737;50.932;6.780;2022-12-07T16:31:54;8.20;99.10
9984;DHT22;16737;50.932;6.780;2022-12-07T16:34:21;8.20;99.10
9984;DHT22;16737;50.932;6.780;2022-12-07T16:36:48;8.20;99.10
9984;DHT22;16737;50.932;6.780;2022-12-07T16:39:16;8.20;99.10
9984;DHT22;16737;50.932;6.780;2022-12-07T16:41:44;8.20;99.10
9984;DHT22;16737;50.932;6.780;2022-12-07T16:44:11;8.20;99.20
9984;DHT22;16737;50.932;6.780;2022-12-07T16:46:39;8.10;99.10
9984;DHT22;16737;50.932;6.780;2022-12-07T16:49:06;8.10;99.10
9984;DHT22;16737;50.932;6.780;2022-12-07T16:51:33;8.10;99.20
9984;DHT22;16737;50.932;6.780;2022-12-07T16:54:02;8.10;99.20
9984;DHT22;16737;50.932;6.780;2022-12-07T16:56:31;8.10;99.20
9984;DHT22;16737;50.932;6.780;2022-12-07T16:58:58;8.10;99.20